map of BQH home
BQH - Airport
Location
City:  Bromley, Kent, England, United Kingdom
Name:London Biggin Hill
Old (Alt.):RAF Biggin Hill
ICAO:EGKB
IATA:BQH

Details
Type:Airport (Aerodrome, Airfield)
Use:Public/Civil, International (customs port of entry)
Latitude:5119'51"N (51.330833)
Longitude:001'57"E (0.032500)
Elevation:599 ft (183 m)
Variation:0.03W (WMM2015v2 magnetic declination)
0.19 annual change
Runways:2
Longest:5971 × 148 ft (1820 × 45 m)

Time
Time Zone:UTC+0 (DST+1)
Local Time:

Weather
METAR:EGKB 041350Z 20018KT 3000 -RA BR BKN006 07/06 Q1016

Related Locations
Nearby:
Farthest:CHT: 11886 mi / 19129 km
Waitangi [Tuuta], CIT, NZ

Find:

   beyond  
but within

Other Information
Maps:
NOTAMs:
Links:
Sources:

  
  • flag of United Kingdom
  • flag of England
  • flag of Kent
  

Airport Diagram

Airport diagram for BQH

Airport diagram PDF

Sectional Chart

Flight Planning
at skyvector.com

Satellite Image

Google Maps Satellite view

 

Copyright © 2004-2019 Karl L. Swartz. All rights reserved.
The Great Circle Mapper name and logo are trademarks of the Great Circle Mapper.
All other trademarks mentioned herein belong to their respective owners.
Please see credits for attibutions and further copyright information.

  Follow gcmap on Facebook Follow gcmap on Twitter GCmap on LinkedIn

hCard Microformat

Geo Microformat